Time;durP1;ratioP1;P1;durP2;ratioP2;P2;SDS_P1;SDS_P2;PMS_P1;PMS_P2;Temp;Humidity;BMP_temperature;BMP_pressure;BME280_temperature;BME280_humidity;BME280_pressure;Samples;Min_cycle;Max_cycle;Signal;HPM_P1;HPM_P2
2023/02/24 00:02:41;;;;;;;37.50;16.63;;;7.30;99.90;;;;;;4139542;28;20617;-75
2023/02/24 00:04:43;;;;;;;37.97;17.50;;;7.20;99.90;;;;;;4177301;28;21002;-74
2023/02/24 00:06:46;;;;;;;40.47;18.07;;;7.20;99.90;;;;;;4176885;28;20519;-73
2023/02/24 00:08:49;;;;;;;35.63;16.37;;;7.10;99.90;;;;;;4160604;28;20948;-74
2023/02/24 00:10:52;;;;;;;49.67;17.97;;;7.10;99.90;;;;;;4177464;28;20518;-75
2023/02/24 00:12:53;;;;;;;43.93;17.80;;;7.20;99.90;;;;;;4175303;28;20452;-77
2023/02/24 00:14:55;;;;;;;43.73;17.53;;;7.20;99.90;;;;;;4177383;28;20984;-74
2023/02/24 00:16:57;;;;;;;39.73;16.63;;;7.10;99.90;;;;;;4174948;28;20500;-74
2023/02/24 00:19:02;;;;;;;39.13;16.70;;;7.10;99.90;;;;;;4174810;28;20445;-76
2023/02/24 00:21:07;;;;;;;38.33;15.30;;;7.10;99.90;;;;;;4174164;28;20460;-75
2023/02/24 00:23:09;;;;;;;41.93;17.53;;;7.10;99.90;;;;;;4158890;28;20535;-75
2023/02/24 00:25:13;;;;;;;43.10;17.07;;;7.10;99.90;;;;;;4177878;28;20472;-77
2023/02/24 00:27:15;;;;;;;44.93;16.10;;;7.00;99.90;;;;;;4178015;28;20625;-75
2023/02/24 00:29:17;;;;;;;42.57;17.20;;;7.00;99.90;;;;;;4176103;28;20467;-74
2023/02/24 00:31:22;;;;;;;48.67;18.20;;;7.00;99.90;;;;;;4177514;28;20520;-75
2023/02/24 00:33:24;;;;;;;49.03;17.23;;;7.00;99.90;;;;;;4178307;28;20486;-74
2023/02/24 00:35:29;;;;;;;54.20;18.40;;;6.90;99.90;;;;;;4176379;28;20480;-74
2023/02/24 00:37:31;;;;;;;44.43;16.87;;;6.90;99.90;;;;;;4160417;28;20481;-75
2023/02/24 00:39:34;;;;;;;39.77;16.37;;;6.90;99.90;;;;;;4161625;28;20643;-74
2023/02/24 00:41:37;;;;;;;49.10;17.37;;;6.90;99.90;;;;;;4176486;28;20448;-73
2023/02/24 00:43:40;;;;;;;45.67;16.57;;;6.90;99.90;;;;;;4177437;28;20973;-74
2023/02/24 00:45:42;;;;;;;53.50;18.20;;;6.90;99.90;;;;;;4159055;28;21036;-74
2023/02/24 00:47:44;;;;;;;53.80;17.83;;;6.80;99.90;;;;;;4159452;28;20469;-74
2023/02/24 00:49:47;;;;;;;51.07;17.53;;;6.80;99.90;;;;;;4177795;28;20551;-74
2023/02/24 00:51:53;;;;;;;48.37;17.00;;;6.80;99.90;;;;;;4172904;28;20487;-74
2023/02/24 00:53:56;;;;;;;55.03;18.17;;;6.80;99.90;;;;;;4174398;28;20891;-75
2023/02/24 00:56:00;;;;;;;51.73;16.53;;;6.80;99.90;;;;;;4157780;28;20449;-74
2023/02/24 00:58:03;;;;;;;57.27;18.20;;;6.80;99.90;;;;;;4174321;28;20739;-75
2023/02/24 01:00:10;;;;;;;52.90;17.07;;;6.80;99.90;;;;;;4160621;28;20457;-74
2023/02/24 01:02:13;;;;;;;58.73;16.33;;;6.70;99.90;;;;;;4174336;28;20514;-74
2023/02/24 01:04:15;;;;;;;59.40;17.13;;;6.70;99.90;;;;;;4159507;28;20491;-74
2023/02/24 01:06:19;;;;;;;66.13;17.43;;;6.70;99.90;;;;;;4176242;28;20463;-75
2023/02/24 01:08:22;;;;;;;64.47;17.33;;;6.60;99.90;;;;;;4176858;28;20960;-75
2023/02/24 01:10:25;;;;;;;60.50;17.43;;;6.60;99.90;;;;;;4176034;28;20483;-75
2023/02/24 01:12:48;;;;;;;71.73;18.07;;;6.60;99.90;;;;;;4177246;28;20437;-75
2023/02/24 01:14:52;;;;;;;66.97;16.90;;;6.60;99.90;;;;;;4176790;28;20475;-75
2023/02/24 01:16:55;;;;;;;61.60;17.03;;;6.60;99.90;;;;;;4177204;28;20487;-75
2023/02/24 01:18:57;;;;;;;65.60;17.83;;;6.60;99.90;;;;;;4176646;28;20499;-75
2023/02/24 01:20:59;;;;;;;67.90;16.63;;;6.50;99.90;;;;;;4176182;28;20531;-75
2023/02/24 01:23:02;;;;;;;75.73;18.17;;;6.50;99.90;;;;;;4175355;28;21027;-75
2023/02/24 01:25:07;;;;;;;63.30;17.50;;;6.50;99.90;;;;;;4171886;28;21174;-75
2023/02/24 01:27:11;;;;;;;65.30;15.53;;;6.50;99.90;;;;;;4173608;28;20506;-73
2023/02/24 01:29:13;;;;;;;63.97;15.97;;;6.50;99.90;;;;;;4173193;28;20487;-77
2023/02/24 01:31:19;;;;;;;64.00;16.27;;;6.50;99.90;;;;;;4155210;28;20492;-75
2023/02/24 01:33:21;;;;;;;77.80;17.70;;;6.50;99.90;;;;;;4173753;28;20538;-75
2023/02/24 01:35:24;;;;;;;70.47;15.73;;;6.50;99.90;;;;;;4176655;28;20482;-77
2023/02/24 01:37:26;;;;;;;68.30;15.33;;;6.40;99.90;;;;;;4174035;28;20874;-77
2023/02/24 01:39:30;;;;;;;66.60;15.80;;;6.40;99.90;;;;;;4175378;28;20464;-73
2023/02/24 01:41:33;;;;;;;68.23;16.27;;;6.40;99.90;;;;;;4175096;28;21030;-76
2023/02/24 01:43:57;;;;;;;79.47;17.33;;;6.40;99.90;;;;;;4176123;28;20542;-74
2023/02/24 01:45:59;;;;;;;57.43;14.00;;;6.40;99.90;;;;;;4177336;28;20999;-75
2023/02/24 01:48:05;;;;;;;63.47;15.70;;;6.40;99.90;;;;;;4174850;28;20819;-75
2023/02/24 01:50:13;;;;;;;60.63;16.03;;;6.40;99.90;;;;;;4172514;28;20467;-74
2023/02/24 01:52:19;;;;;;;68.97;15.73;;;6.40;99.90;;;;;;4176653;28;20494;-75
2023/02/24 01:54:25;;;;;;;62.63;15.70;;;6.40;99.90;;;;;;4174660;28;20574;-74
2023/02/24 01:56:28;;;;;;;67.63;15.27;;;6.50;99.90;;;;;;4176335;28;21022;-74
2023/02/24 01:58:32;;;;;;;78.80;17.43;;;6.40;99.90;;;;;;4176573;28;20475;-73
2023/02/24 02:00:43;;;;;;;70.40;17.20;;;6.40;99.90;;;;;;4177665;28;20452;-73
2023/02/24 02:02:49;;;;;;;61.93;17.53;;;6.40;99.90;;;;;;4169243;28;20953;-73
2023/02/24 02:04:56;;;;;;;65.70;16.40;;;6.40;99.90;;;;;;4174078;28;20492;-77
2023/02/24 02:06:58;;;;;;;57.97;15.73;;;6.40;99.90;;;;;;4176328;28;20482;-74
2023/02/24 02:09:01;;;;;;;73.87;17.00;;;6.40;99.90;;;;;;4178139;28;20482;-74
2023/02/24 02:11:05;;;;;;;68.30;16.10;;;6.30;99.90;;;;;;4175609;28;20513;-74
2023/02/24 02:13:07;;;;;;;41.87;11.73;;;6.40;99.90;;;;;;4177180;28;20946;-74
2023/02/24 02:15:13;;;;;;;32.90;10.10;;;6.30;99.90;;;;;;4178420;28;21067;-74
2023/02/24 02:17:21;;;;;;;35.47;8.90;;;6.20;99.90;;;;;;4173033;28;20463;-73
2023/02/24 02:19:55;;;;;;;33.40;7.80;;;6.10;99.90;;;;;;4176686;28;20504;-76
2023/02/24 02:22:15;;;;;;;25.87;6.17;;;6.00;99.90;;;;;;4160445;28;20453;-75
2023/02/24 02:24:45;;;;;;;20.10;5.07;;;5.90;99.90;;;;;;4173971;28;20477;-76
2023/02/24 02:27:19;;;;;;;17.13;4.80;;;5.80;99.90;;;;;;4162556;28;20563;-74
2023/02/24 02:29:58;;;;;;;20.80;4.03;;;5.60;99.90;;;;;;4173733;28;20960;-75
2023/02/24 02:32:32;;;;;;;17.93;3.50;;;5.50;99.90;;;;;;4170022;28;20480;-74
2023/02/24 02:34:49;;;;;;;19.67;3.60;;;5.40;99.90;;;;;;4128104;28;21129;-74
2023/02/24 02:36:58;;;;;;;16.63;3.87;;;5.40;99.90;;;;;;4175822;28;20473;-74
2023/02/24 02:39:11;;;;;;;15.90;2.90;;;5.30;99.90;;;;;;4174959;28;20474;-77
2023/02/24 02:41:22;;;;;;;22.23;4.30;;;5.20;99.90;;;;;;4173311;28;20517;-74
2023/02/24 02:43:31;;;;;;;16.30;3.97;;;5.10;99.90;;;;;;4177841;28;21182;-75
2023/02/24 02:45:40;;;;;;;30.40;4.00;;;5.10;99.90;;;;;;4179280;28;20500;-74
2023/02/24 02:47:49;;;;;;;26.03;3.90;;;5.00;99.90;;;;;;4180503;28;20966;-75
2023/02/24 02:49:57;;;;;;;22.53;3.63;;;5.00;99.90;;;;;;4181426;28;20479;-74
2023/02/24 02:52:06;;;;;;;19.77;3.43;;;4.90;99.90;;;;;;4178603;28;20492;-75
2023/02/24 02:54:16;;;;;;;26.27;4.20;;;4.80;99.90;;;;;;4175343;28;20983;-75
2023/02/24 02:56:24;;;;;;;25.07;3.97;;;4.80;99.90;;;;;;4179577;28;20585;-74
2023/02/24 02:58:31;;;;;;;30.17;4.60;;;4.70;99.90;;;;;;4179343;28;20942;-76
2023/02/24 03:00:36;;;;;;;19.30;3.10;;;4.70;99.90;;;;;;4179449;28;20561;-74
2023/02/24 03:02:41;;;;;;;21.73;3.30;;;4.60;99.90;;;;;;4180758;28;20472;-75
2023/02/24 03:04:50;;;;;;;30.30;4.50;;;4.60;99.90;;;;;;4177256;28;20529;-75
2023/02/24 03:06:56;;;;;;;20.33;3.80;;;4.60;99.90;;;;;;4180610;28;20496;-73
2023/02/24 03:09:01;;;;;;;23.90;4.60;;;4.60;99.90;;;;;;4176888;28;20466;-76
2023/02/24 03:11:07;;;;;;;25.13;4.57;;;4.60;99.90;;;;;;4178966;28;20481;-74
2023/02/24 03:13:12;;;;;;;18.30;3.80;;;4.50;99.90;;;;;;4175943;28;20451;-73
2023/02/24 03:15:15;;;;;;;25.60;4.73;;;4.50;99.90;;;;;;4159148;28;20469;-74
2023/02/24 03:17:22;;;;;;;24.53;4.43;;;4.50;99.90;;;;;;4164739;28;20473;-72
2023/02/24 03:19:30;;;;;;;23.33;4.80;;;4.50;99.90;;;;;;4175188;28;21030;-74
2023/02/24 03:21:36;;;;;;;17.90;3.70;;;4.40;99.90;;;;;;4161359;28;20878;-75
2023/02/24 03:23:44;;;;;;;25.37;3.97;;;4.50;99.90;;;;;;4173940;28;20468;-75
2023/02/24 03:25:52;;;;;;;18.20;3.93;;;4.40;99.90;;;;;;4176184;28;20450;-76
2023/02/24 03:28:00;;;;;;;27.03;4.57;;;4.40;99.90;;;;;;4177358;28;20446;-74
2023/02/24 03:30:06;;;;;;;20.20;4.67;;;4.40;99.90;;;;;;4177774;28;20452;-76
2023/02/24 03:32:14;;;;;;;37.20;6.03;;;4.40;99.90;;;;;;4179037;28;20498;-74
2023/02/24 03:34:22;;;;;;;31.70;5.57;;;4.40;99.90;;;;;;4178718;28;20889;-74
2023/02/24 03:36:24;;;;;;;34.40;5.37;;;4.30;99.90;;;;;;4178070;28;20454;-73
2023/02/24 03:38:26;;;;;;;44.73;6.67;;;4.30;99.90;;;;;;4179299;28;20473;-74
2023/02/24 03:40:34;;;;;;;24.37;4.97;;;4.30;99.90;;;;;;4181067;28;21214;-73
2023/02/24 03:42:37;;;;;;;25.73;5.30;;;4.30;99.90;;;;;;4174854;28;20458;-73
2023/02/24 03:44:39;;;;;;;31.77;4.27;;;4.30;99.90;;;;;;4179925;28;20484;-72
2023/02/24 03:46:41;;;;;;;20.67;4.13;;;4.30;99.90;;;;;;4174346;28;20492;-74
2023/02/24 03:48:50;;;;;;;35.63;4.73;;;4.30;99.90;;;;;;4152609;28;20828;-73
2023/02/24 03:50:52;;;;;;;34.07;5.83;;;4.20;99.90;;;;;;4176739;28;20492;-73
2023/02/24 03:53:05;;;;;;;27.83;4.37;;;4.20;99.90;;;;;;4178408;28;20459;-75
2023/02/24 03:55:21;;;;;;;32.20;5.10;;;4.20;99.90;;;;;;4176441;28;20531;-77
2023/02/24 03:57:35;;;;;;;33.70;4.60;;;4.20;99.90;;;;;;4161847;28;20532;-74
2023/02/24 03:59:49;;;;;;;25.57;5.13;;;4.20;99.90;;;;;;4159626;28;20447;-74
2023/02/24 04:01:56;;;;;;;29.60;4.83;;;4.10;99.90;;;;;;4177600;28;20456;-74
2023/02/24 04:04:06;;;;;;;26.50;4.73;;;4.10;99.90;;;;;;4162914;28;20548;-73
2023/02/24 04:06:13;;;;;;;31.13;4.60;;;4.10;99.90;;;;;;4162884;28;20989;-74
2023/02/24 04:08:19;;;;;;;24.37;4.07;;;4.00;99.90;;;;;;4162915;28;20465;-74
2023/02/24 04:10:26;;;;;;;29.77;4.07;;;4.00;99.90;;;;;;4174979;28;20972;-73
2023/02/24 04:12:36;;;;;;;31.97;3.40;;;4.00;99.90;;;;;;4177517;28;20492;-73
2023/02/24 04:14:47;;;;;;;20.90;3.87;;;4.00;99.90;;;;;;4179932;28;20526;-75
2023/02/24 04:16:55;;;;;;;22.03;3.67;;;4.00;99.90;;;;;;4179077;28;21185;-74
2023/02/24 04:19:02;;;;;;;23.27;3.70;;;4.00;99.90;;;;;;4173731;28;21191;-75
2023/02/24 04:21:06;;;;;;;23.90;3.50;;;4.00;99.90;;;;;;4171308;28;20453;-75
2023/02/24 04:23:13;;;;;;;24.00;3.17;;;4.00;99.90;;;;;;4178302;28;21132;-73
2023/02/24 04:25:18;;;;;;;21.37;4.23;;;4.00;99.90;;;;;;4178907;28;20507;-72
2023/02/24 04:27:21;;;;;;;16.93;2.87;;;4.00;99.90;;;;;;4178022;28;20453;-74
2023/02/24 04:29:27;;;;;;;21.17;3.40;;;4.00;99.90;;;;;;4162898;28;20967;-74
2023/02/24 04:31:31;;;;;;;19.20;3.27;;;4.00;99.90;;;;;;4173802;28;20579;-74
2023/02/24 04:33:33;;;;;;;19.20;3.53;;;4.00;99.90;;;;;;4175023;28;20456;-74
2023/02/24 04:35:36;;;;;;;16.97;3.20;;;4.00;99.90;;;;;;4173350;28;20497;-73
2023/02/24 04:37:43;;;;;;;14.00;2.93;;;3.90;99.90;;;;;;4172133;28;21223;-73
2023/02/24 04:39:45;;;;;;;13.87;2.60;;;3.90;99.90;;;;;;4177657;28;21445;-74
2023/02/24 04:41:48;;;;;;;17.60;2.67;;;3.90;99.90;;;;;;4173469;28;21120;-75
2023/02/24 04:43:50;;;;;;;15.80;3.07;;;4.00;99.90;;;;;;4161012;28;20528;-75
2023/02/24 04:45:54;;;;;;;21.73;2.80;;;3.90;99.90;;;;;;4172591;28;20465;-75
2023/02/24 04:47:59;;;;;;;20.00;3.33;;;3.90;99.90;;;;;;4169841;28;20878;-73
2023/02/24 04:50:04;;;;;;;12.20;2.60;;;3.90;99.90;;;;;;4174381;28;20956;-73
2023/02/24 04:52:08;;;;;;;22.23;3.17;;;3.90;99.90;;;;;;4172321;28;20495;-74
2023/02/24 04:54:10;;;;;;;17.77;3.20;;;3.90;99.90;;;;;;4156397;28;20483;-74
2023/02/24 04:56:11;;;;;;;19.07;3.07;;;3.90;99.90;;;;;;4168443;28;21002;-78
2023/02/24 04:58:17;;;;;;;24.80;3.60;;;3.80;99.90;;;;;;4177718;28;20499;-73
2023/02/24 05:00:21;;;;;;;10.57;2.60;;;3.80;99.90;;;;;;4175331;28;20454;-75
2023/02/24 05:02:24;;;;;;;12.50;2.90;;;3.80;99.90;;;;;;4173976;28;20914;-75
2023/02/24 05:04:28;;;;;;;17.30;3.40;;;3.80;99.90;;;;;;4171072;28;20508;-74
2023/02/24 05:06:30;;;;;;;13.67;2.77;;;3.80;99.90;;;;;;4176207;28;20523;-73
2023/02/24 05:08:32;;;;;;;11.10;2.80;;;3.80;99.90;;;;;;4175050;28;20457;-73
2023/02/24 05:10:37;;;;;;;11.17;1.80;;;3.80;99.90;;;;;;4175211;28;20445;-74
2023/02/24 05:12:39;;;;;;;25.57;2.80;;;3.80;99.90;;;;;;4178604;28;20861;-74
2023/02/24 05:14:42;;;;;;;16.40;2.73;;;3.80;99.90;;;;;;4158191;28;20475;-73
2023/02/24 05:16:46;;;;;;;15.50;2.80;;;3.80;99.90;;;;;;4159561;28;20529;-74
2023/02/24 05:18:49;;;;;;;25.93;3.07;;;3.80;99.90;;;;;;4161160;28;20852;-77
2023/02/24 05:23:15;;;;;;;23.47;2.73;;;3.80;99.90;;;;;;4175595;28;20560;-75
2023/02/24 05:25:18;;;;;;;17.07;2.77;;;3.70;99.90;;;;;;4172332;28;20472;-75
2023/02/24 05:27:21;;;;;;;13.33;2.43;;;3.70;99.90;;;;;;4166461;28;20489;-75
2023/02/24 05:29:23;;;;;;;13.90;2.30;;;3.70;99.90;;;;;;4168128;28;21203;-75
2023/02/24 05:31:27;;;;;;;15.87;2.50;;;3.60;99.90;;;;;;4169482;28;20515;-74
2023/02/24 05:33:29;;;;;;;18.53;2.53;;;3.60;99.90;;;;;;4173969;28;20457;-73
2023/02/24 05:35:36;;;;;;;42.37;4.10;;;3.60;99.90;;;;;;4175853;28;20550;-72
2023/02/24 05:37:40;;;;;;;14.73;2.20;;;3.60;99.90;;;;;;4160671;28;20526;-73
2023/02/24 05:39:42;;;;;;;23.07;2.90;;;3.60;99.90;;;;;;4152937;28;20959;-73
2023/02/24 05:41:47;;;;;;;14.73;2.53;;;3.60;99.90;;;;;;4161290;28;20478;-74
2023/02/24 05:43:53;;;;;;;22.67;3.00;;;3.50;99.90;;;;;;4173996;28;21039;-72
2023/02/24 05:45:56;;;;;;;15.00;2.50;;;3.50;99.90;;;;;;4161176;28;20449;-72
2023/02/24 05:47:58;;;;;;;11.73;2.27;;;3.60;99.90;;;;;;4174929;28;20453;-73
2023/02/24 05:50:00;;;;;;;13.40;2.83;;;3.60;99.90;;;;;;4173955;28;20461;-73
2023/02/24 05:52:07;;;;;;;24.97;3.53;;;3.60;99.90;;;;;;4172287;28;20530;-72
2023/02/24 05:54:12;;;;;;;17.23;3.13;;;3.60;99.90;;;;;;4174621;28;20476;-76
2023/02/24 05:56:16;;;;;;;17.60;3.40;;;3.60;99.90;;;;;;4159721;28;20532;-74
2023/02/24 05:58:18;;;;;;;25.03;2.87;;;3.60;99.90;;;;;;4157221;28;20533;-75
2023/02/24 06:00:24;;;;;;;33.77;3.57;;;3.60;99.90;;;;;;4188798;28;20598;-74
2023/02/24 06:02:28;;;;;;;20.33;3.17;;;3.60;99.90;;;;;;4172284;28;20994;-74
2023/02/24 06:04:39;;;;;;;15.30;2.87;;;3.60;99.90;;;;;;4170578;28;20466;-74
2023/02/24 06:06:42;;;;;;;15.20;3.00;;;3.50;99.90;;;;;;4175019;28;21235;-76
2023/02/24 06:08:49;;;;;;;18.63;3.27;;;3.60;99.90;;;;;;4173928;28;20471;-72
2023/02/24 06:10:51;;;;;;;14.40;2.77;;;3.50;99.90;;;;;;4172181;28;20995;-73
2023/02/24 06:12:53;;;;;;;17.20;3.43;;;3.60;99.90;;;;;;4171467;28;20506;-73
2023/02/24 06:14:57;;;;;;;17.50;3.17;;;3.60;99.90;;;;;;4173274;28;20469;-73
2023/02/24 06:17:02;;;;;;;24.83;4.37;;;3.60;99.90;;;;;;4169999;28;20452;-76
2023/02/24 06:19:05;;;;;;;24.43;3.27;;;3.60;99.90;;;;;;4171355;28;20483;-73
2023/02/24 06:21:07;;;;;;;15.90;3.80;;;3.60;99.90;;;;;;4171849;28;20834;-73
2023/02/24 06:23:09;;;;;;;14.10;2.87;;;3.60;99.90;;;;;;4169976;28;20951;-72
2023/02/24 06:25:12;;;;;;;10.10;2.73;;;3.60;99.90;;;;;;4160752;28;20553;-73
2023/02/24 06:27:17;;;;;;;17.03;3.13;;;3.60;99.90;;;;;;4175631;28;20882;-73
2023/02/24 06:29:19;;;;;;;14.83;2.90;;;3.60;99.90;;;;;;4174300;28;20927;-76
2023/02/24 06:31:21;;;;;;;18.70;3.17;;;3.60;99.90;;;;;;4174527;28;20518;-77
2023/02/24 06:33:26;;;;;;;22.07;2.87;;;3.60;99.90;;;;;;4175924;28;20480;-74
2023/02/24 06:35:28;;;;;;;16.40;3.07;;;3.60;99.90;;;;;;4172159;28;20519;-74
2023/02/24 06:37:30;;;;;;;22.33;3.33;;;3.60;99.90;;;;;;4147990;28;20459;-77
2023/02/24 06:39:32;;;;;;;18.67;3.00;;;3.50;99.90;;;;;;4170162;28;20495;-74
2023/02/24 06:41:36;;;;;;;10.00;2.63;;;3.60;99.90;;;;;;4173067;28;20499;-76
2023/02/24 06:43:39;;;;;;;18.67;3.33;;;3.60;99.90;;;;;;4168669;28;20452;-76
2023/02/24 06:45:41;;;;;;;18.93;2.50;;;3.60;99.90;;;;;;4169499;28;20489;-75
2023/02/24 06:47:45;;;;;;;11.83;2.77;;;3.60;99.90;;;;;;4169600;28;20533;-78
2023/02/24 06:49:49;;;;;;;16.57;3.17;;;3.70;99.90;;;;;;4169418;28;20442;-75
2023/02/24 06:51:51;;;;;;;10.83;2.30;;;3.70;99.90;;;;;;4167451;28;20449;-75
2023/02/24 06:53:53;;;;;;;16.80;3.53;;;3.60;99.90;;;;;;4170582;28;20499;-74
2023/02/24 06:55:54;;;;;;;14.13;2.97;;;3.60;99.90;;;;;;4168382;28;20581;-76
2023/02/24 06:58:03;;;;;;;7.43;2.20;;;3.70;99.90;;;;;;4166433;28;20479;-76
2023/02/24 07:00:16;;;;;;;13.40;2.67;;;3.70;99.90;;;;;;4151624;28;20483;-73
2023/02/24 07:02:18;;;;;;;18.67;4.07;;;3.70;99.90;;;;;;4165575;28;20461;-72
2023/02/24 07:04:23;;;;;;;13.37;2.43;;;3.70;99.90;;;;;;4159138;28;20471;-74
2023/02/24 07:06:27;;;;;;;14.13;3.27;;;3.70;99.90;;;;;;4156863;28;20553;-73
2023/02/24 07:08:29;;;;;;;14.50;2.47;;;3.70;99.90;;;;;;4173449;28;20444;-73
2023/02/24 07:10:31;;;;;;;11.10;2.73;;;3.70;99.90;;;;;;4172467;28;20992;-75
2023/02/24 07:12:33;;;;;;;12.90;2.50;;;3.60;99.90;;;;;;4170274;28;20485;-77
2023/02/24 07:14:37;;;;;;;10.60;2.37;;;3.70;99.90;;;;;;4167088;28;20509;-74
2023/02/24 07:16:43;;;;;;;12.30;2.83;;;3.70;99.90;;;;;;4168183;28;20452;-73
2023/02/24 07:18:47;;;;;;;18.63;3.03;;;3.70;99.90;;;;;;4148291;28;20495;-74
2023/02/24 07:20:49;;;;;;;9.93;2.83;;;3.70;99.90;;;;;;4166116;28;20456;-74
2023/02/24 07:22:52;;;;;;;16.80;3.53;;;3.70;99.90;;;;;;4155520;28;20451;-74
2023/02/24 07:24:59;;;;;;;12.73;2.97;;;3.70;99.90;;;;;;4168125;28;20512;-74
2023/02/24 07:27:02;;;;;;;11.80;3.10;;;3.70;99.90;;;;;;4169417;28;20461;-74
2023/02/24 07:29:05;;;;;;;11.53;3.23;;;3.70;99.90;;;;;;4157790;28;20519;-75
2023/02/24 07:31:10;;;;;;;16.27;3.30;;;3.70;99.90;;;;;;4171288;28;20473;-74
2023/02/24 07:33:13;;;;;;;14.67;3.30;;;3.70;99.90;;;;;;4161591;28;20475;-74
2023/02/24 07:35:15;;;;;;;19.90;3.30;;;3.70;99.90;;;;;;4174543;28;20480;-74
2023/02/24 07:37:19;;;;;;;17.40;3.60;;;3.70;99.90;;;;;;4174132;28;20453;-74
2023/02/24 07:39:22;;;;;;;20.97;3.17;;;3.70;99.90;;;;;;4171831;28;20534;-73
2023/02/24 07:41:26;;;;;;;14.40;3.47;;;3.70;99.90;;;;;;4155369;28;20480;-73
2023/02/24 07:43:28;;;;;;;11.03;3.27;;;3.80;99.90;;;;;;4174881;28;20450;-73
2023/02/24 07:45:31;;;;;;;22.50;4.20;;;3.70;99.90;;;;;;4154068;28;20499;-74
2023/02/24 07:47:34;;;;;;;18.73;3.43;;;3.70;99.90;;;;;;4157835;28;20617;-76
2023/02/24 07:49:38;;;;;;;19.47;4.43;;;3.70;99.90;;;;;;4171810;28;20446;-74
2023/02/24 07:51:41;;;;;;;25.70;4.43;;;3.70;99.90;;;;;;4155407;28;20956;-72
2023/02/24 07:53:43;;;;;;;15.13;3.60;;;3.70;99.90;;;;;;4158435;28;20529;-74
2023/02/24 07:55:46;;;;;;;15.53;4.07;;;3.70;99.90;;;;;;4176843;28;20467;-74
2023/02/24 07:57:48;;;;;;;20.40;4.73;;;3.80;99.90;;;;;;4174281;28;20463;-74
2023/02/24 07:59:52;;;;;;;13.53;4.37;;;3.80;99.90;;;;;;4172983;28;20553;-75
2023/02/24 08:01:55;;;;;;;23.77;5.40;;;3.80;99.90;;;;;;4158132;28;20871;-77
2023/02/24 08:04:01;;;;;;;20.90;4.83;;;3.80;99.90;;;;;;4171943;28;20536;-74
2023/02/24 08:06:14;;;;;;;19.77;5.60;;;3.80;99.90;;;;;;4153140;28;20903;-75
2023/02/24 08:08:19;;;;;;;15.80;4.10;;;3.90;99.90;;;;;;4158878;28;21011;-73
2023/02/24 08:10:24;;;;;;;19.23;4.23;;;3.90;99.90;;;;;;4172301;28;20471;-72
2023/02/24 08:12:26;;;;;;;20.57;3.97;;;4.00;99.90;;;;;;4173326;28;20442;-72
2023/02/24 08:14:31;;;;;;;18.50;4.23;;;4.00;99.90;;;;;;4170814;28;20486;-75
2023/02/24 08:16:39;;;;;;;14.37;3.60;;;4.10;99.90;;;;;;4176351;28;20442;-73
2023/02/24 08:18:47;;;;;;;14.60;4.30;;;4.10;99.90;;;;;;4178130;28;20532;-73
2023/02/24 08:20:52;;;;;;;18.07;4.47;;;4.10;99.90;;;;;;4177348;28;20507;-73
2023/02/24 08:22:55;;;;;;;22.93;4.30;;;4.10;99.90;;;;;;4177322;28;20446;-73
2023/02/24 08:24:59;;;;;;;24.07;5.03;;;4.20;99.90;;;;;;4178896;28;20569;-72
2023/02/24 08:27:04;;;;;;;24.00;5.73;;;4.20;99.90;;;;;;4174642;28;20528;-72
2023/02/24 08:29:06;;;;;;;20.33;5.63;;;4.10;99.90;;;;;;4174060;28;20501;-72
2023/02/24 08:31:08;;;;;;;14.53;4.40;;;4.20;99.90;;;;;;4178443;28;20454;-73
2023/02/24 08:33:14;;;;;;;16.60;4.27;;;4.20;99.90;;;;;;4177591;28;20862;-73
2023/02/24 08:35:18;;;;;;;16.63;3.77;;;4.20;99.90;;;;;;4177107;28;20471;-75
2023/02/24 08:37:22;;;;;;;26.47;4.17;;;4.20;99.90;;;;;;4173644;28;20511;-74
2023/02/24 08:39:28;;;;;;;19.13;6.13;;;4.20;99.90;;;;;;4177316;28;20944;-73
2023/02/24 08:41:44;;;;;;;13.93;4.17;;;4.30;99.90;;;;;;4176973;28;20486;-78
2023/02/24 08:43:48;;;;;;;20.43;4.70;;;4.30;99.90;;;;;;4159367;28;20483;-74
2023/02/24 08:45:52;;;;;;;14.33;3.80;;;4.40;99.90;;;;;;4172168;28;20482;-74
2023/02/24 08:47:59;;;;;;;23.13;4.23;;;4.40;99.90;;;;;;4171075;28;20480;-73
2023/02/24 08:50:05;;;;;;;20.37;4.00;;;4.50;99.90;;;;;;4174012;28;20466;-75
2023/02/24 08:52:08;;;;;;;11.57;3.80;;;4.50;99.90;;;;;;4176968;28;20861;-75
2023/02/24 08:54:15;;;;;;;14.43;4.23;;;4.60;99.90;;;;;;4168911;28;20490;-75
2023/02/24 08:56:22;;;;;;;24.43;4.53;;;4.60;99.90;;;;;;4170512;28;20493;-72
2023/02/24 08:58:26;;;;;;;17.50;4.10;;;4.70;99.90;;;;;;4173573;28;20449;-73
2023/02/24 09:00:47;;;;;;;12.87;3.50;;;4.70;99.90;;;;;;4170749;28;20474;-73
2023/02/24 09:02:49;;;;;;;12.47;3.20;;;4.80;99.90;;;;;;4156174;28;20474;-74
2023/02/24 09:04:53;;;;;;;16.00;4.17;;;4.80;99.90;;;;;;4177159;28;20939;-75
2023/02/24 09:06:56;;;;;;;9.63;3.03;;;4.90;99.90;;;;;;4176043;28;20538;-73
2023/02/24 09:09:17;;;;;;;13.50;3.70;;;4.90;99.90;;;;;;4173833;28;20497;-73
2023/02/24 09:11:21;;;;;;;20.67;3.20;;;4.90;99.90;;;;;;4176421;28;20469;-73
2023/02/24 09:13:31;;;;;;;10.87;3.10;;;5.00;99.90;;;;;;4175277;28;20474;-73
2023/02/24 09:15:40;;;;;;;11.27;3.00;;;5.00;99.90;;;;;;4175000;28;20855;-73
2023/02/24 09:17:49;;;;;;;12.67;3.23;;;5.00;99.90;;;;;;4171603;28;20440;-74
2023/02/24 09:22:28;;;;;;;15.00;3.37;;;5.00;99.90;;;;;;4171400;28;20454;-73
2023/02/24 09:24:32;;;;;;;12.70;2.93;;;5.10;99.90;;;;;;4174404;28;20513;-76
2023/02/24 09:26:42;;;;;;;7.80;3.17;;;5.10;99.90;;;;;;4175421;28;20474;-74
2023/02/24 09:28:54;;;;;;;11.73;3.10;;;5.10;99.90;;;;;;4170411;28;20498;-74
2023/02/24 09:30:59;;;;;;;9.23;3.33;;;5.10;99.90;;;;;;4173523;28;20447;-74
2023/02/24 09:33:01;;;;;;;14.60;2.87;;;5.10;99.90;;;;;;4175855;28;20849;-73
2023/02/24 09:35:03;;;;;;;11.60;3.00;;;5.10;99.90;;;;;;4151791;28;20483;-75
2023/02/24 09:37:23;;;;;;;9.53;2.70;;;5.10;99.90;;;;;;4173831;28;20467;-77
2023/02/24 09:39:26;;;;;;;11.80;3.80;;;5.10;99.90;;;;;;4177711;28;20513;-75
2023/02/24 09:41:52;;;;;;;9.53;2.87;;;5.10;99.90;;;;;;4174619;28;20550;-74
2023/02/24 09:43:58;;;;;;;9.37;3.67;;;5.10;99.90;;;;;;4169869;28;21029;-74
2023/02/24 09:46:13;;;;;;;17.87;4.27;;;5.10;99.90;;;;;;4168544;28;20460;-74
2023/02/24 09:48:21;;;;;;;11.60;3.43;;;5.10;99.90;;;;;;4164769;28;21206;-76
2023/02/24 09:50:44;;;;;;;14.03;4.00;;;5.20;99.90;;;;;;4157081;28;20460;-74
2023/02/24 09:52:49;;;;;;;13.07;3.93;;;5.20;99.90;;;;;;4168458;28;20995;-75
2023/02/24 09:57:16;;;;;;;9.50;3.57;;;5.30;99.90;;;;;;4166609;28;20530;-74
2023/02/24 09:59:33;;;;;;;10.83;4.03;;;5.30;99.90;;;;;;4167495;28;20488;-76
2023/02/24 10:01:46;;;;;;;13.13;3.80;;;5.30;99.90;;;;;;4150837;28;20899;-75
2023/02/24 10:04:03;;;;;;;17.63;4.67;;;5.30;99.90;;;;;;4166733;28;20479;-76
2023/02/24 10:06:14;;;;;;;11.30;3.93;;;5.40;99.90;;;;;;4174579;28;20553;-75
2023/02/24 10:08:24;;;;;;;17.60;4.80;;;5.40;99.90;;;;;;4169407;28;20555;-74
2023/02/24 10:10:29;;;;;;;15.73;4.87;;;5.40;99.90;;;;;;4170620;28;20478;-75
2023/02/24 10:12:38;;;;;;;14.60;5.00;;;5.40;99.90;;;;;;4170049;28;20447;-74
2023/02/24 10:14:51;;;;;;;14.03;4.77;;;5.40;99.90;;;;;;4168412;28;20491;-74
2023/02/24 10:19:26;;;;;;;11.90;4.30;;;5.60;99.90;;;;;;4176697;28;20456;-75
2023/02/24 10:21:47;;;;;;;16.43;5.50;;;5.70;99.90;;;;;;4175812;28;20541;-74
2023/02/24 10:24:00;;;;;;;17.20;5.30;;;5.80;99.90;;;;;;4172208;28;20941;-73
2023/02/24 10:26:06;;;;;;;14.73;5.30;;;5.90;99.90;;;;;;4175030;28;20513;-76
2023/02/24 10:28:23;;;;;;;12.37;5.30;;;6.00;99.90;;;;;;4173607;28;20894;-73
2023/02/24 10:30:40;;;;;;;12.73;5.47;;;6.10;99.90;;;;;;4166762;28;20974;-77
2023/02/24 10:32:47;;;;;;;16.73;5.97;;;6.20;99.90;;;;;;4169941;28;20461;-75
2023/02/24 10:34:49;;;;;;;29.10;6.90;;;6.20;99.90;;;;;;4171396;28;20949;-73
2023/02/24 10:36:52;;;;;;;11.83;4.80;;;6.30;99.90;;;;;;4171109;28;20547;-73
2023/02/24 10:38:55;;;;;;;13.83;4.70;;;6.40;99.90;;;;;;4172436;28;20452;-73
2023/02/24 10:40:57;;;;;;;18.20;4.93;;;6.50;99.90;;;;;;4173382;28;20890;-76
2023/02/24 10:43:09;;;;;;;12.50;4.73;;;6.60;99.90;;;;;;4169722;28;20504;-74
2023/02/24 10:45:16;;;;;;;11.73;4.47;;;6.60;99.90;;;;;;4172945;28;20485;-75
2023/02/24 10:47:29;;;;;;;12.93;4.60;;;6.60;99.90;;;;;;4174260;28;20444;-78
2023/02/24 10:49:32;;;;;;;10.73;4.57;;;6.60;99.90;;;;;;4166883;28;20449;-77
2023/02/24 10:51:39;;;;;;;12.80;4.43;;;6.60;99.90;;;;;;4174822;28;20467;-77
2023/02/24 10:53:42;;;;;;;11.80;3.77;;;6.60;99.90;;;;;;4160805;28;21261;-74
2023/02/24 10:55:53;;;;;;;13.60;3.87;;;6.60;99.90;;;;;;4177985;28;20463;-75
2023/02/24 10:58:05;;;;;;;14.57;4.27;;;6.70;99.90;;;;;;4173398;28;21015;-75
2023/02/24 11:00:29;;;;;;;11.90;3.23;;;6.70;99.90;;;;;;4170982;28;20445;-75
2023/02/24 11:02:55;;;;;;;8.00;2.80;;;6.80;99.90;;;;;;4171913;28;20481;-76
2023/02/24 11:05:23;;;;;;;9.73;2.97;;;6.80;99.90;;;;;;4172661;28;20885;-77
2023/02/24 11:07:42;;;;;;;9.43;2.47;;;6.80;99.90;;;;;;4175060;28;20453;-74